createdAt,value
2018-10-21T00:17:18.935Z,19.80
2018-10-21T00:30:26.206Z,19.80
2018-10-21T00:43:33.383Z,19.80
2018-10-21T00:56:40.550Z,19.80
2018-10-21T01:09:47.726Z,19.70
2018-10-21T01:22:54.918Z,19.70
2018-10-21T01:36:02.153Z,19.70
2018-10-21T01:49:09.339Z,19.70
2018-10-21T02:02:16.505Z,19.70
2018-10-21T02:28:26.291Z,19.70
2018-10-21T02:41:33.514Z,19.70
2018-10-21T02:54:40.669Z,19.70
2018-10-21T03:07:47.864Z,19.70
2018-10-21T03:20:55.062Z,19.70
2018-10-21T03:34:02.340Z,19.70
2018-10-21T03:47:09.437Z,19.60
2018-10-21T04:00:16.652Z,19.60
2018-10-21T04:13:23.846Z,19.70
2018-10-21T04:26:31.058Z,19.60
2018-10-21T04:39:38.212Z,19.60
2018-10-21T04:52:45.368Z,19.60
2018-10-21T05:05:52.526Z,19.70
2018-10-21T05:18:59.713Z,19.70
2018-10-21T05:32:06.884Z,19.60
2018-10-21T05:45:14.130Z,19.60
2018-10-21T05:58:21.443Z,19.70
2018-10-21T06:11:28.595Z,19.70
2018-10-21T06:24:35.812Z,19.60
2018-10-21T06:37:42.967Z,19.60
2018-10-21T06:50:50.144Z,19.60
2018-10-21T07:03:57.348Z,19.60
2018-10-21T07:43:09.851Z,20.10
2018-10-21T07:56:17.151Z,19.90
2018-10-21T08:09:24.350Z,19.80
2018-10-21T08:22:31.577Z,19.80
2018-10-21T08:48:41.537Z,19.70
2018-10-21T09:01:48.709Z,19.80
2018-10-21T09:14:55.895Z,19.70
2018-10-21T09:41:09.690Z,19.70
2018-10-21T09:54:16.878Z,19.70
2018-10-21T10:07:24.038Z,19.80
2018-10-21T10:20:31.225Z,19.90
2018-10-21T10:33:38.496Z,20.00
2018-10-21T10:46:45.650Z,20.00
2018-10-21T10:59:52.924Z,19.90
2018-10-21T11:13:00.040Z,19.70
2018-10-21T11:26:07.202Z,19.90
2018-10-21T11:39:14.390Z,20.00
2018-10-21T11:52:21.700Z,20.00
2018-10-21T12:05:28.764Z,20.10
2018-10-21T12:18:35.943Z,20.00
2018-10-21T12:31:43.099Z,20.00
2018-10-21T12:44:50.259Z,20.00
2018-10-21T12:57:57.475Z,20.00
2018-10-21T13:11:04.620Z,20.00
2018-10-21T13:24:11.782Z,19.80
2018-10-21T13:37:18.941Z,19.80
2018-10-21T13:50:26.095Z,19.70
2018-10-21T14:03:33.282Z,19.60
2018-10-21T14:16:40.511Z,19.60
2018-10-21T14:29:47.606Z,19.50
2018-10-21T14:42:54.823Z,19.60
2018-10-21T14:56:02.076Z,19.50
2018-10-21T15:09:09.287Z,19.50
2018-10-21T15:22:16.545Z,19.50
2018-10-21T15:35:23.654Z,19.50
2018-10-21T15:48:30.832Z,19.50
2018-10-21T16:01:38.058Z,19.50
2018-10-21T16:14:45.272Z,19.40
2018-10-21T16:27:52.517Z,19.40
2018-10-21T16:40:59.655Z,19.50
2018-10-21T16:54:06.906Z,19.60
2018-10-21T17:07:14.105Z,19.70
2018-10-21T17:20:21.353Z,19.70
2018-10-21T17:33:29.248Z,19.70
2018-10-21T17:46:36.532Z,19.80
2018-10-21T17:59:43.717Z,19.80
2018-10-21T18:12:50.950Z,19.90
2018-10-21T18:25:58.133Z,19.90
2018-10-21T18:39:05.349Z,19.90
2018-10-21T18:52:12.762Z,20.00
2018-10-21T19:05:19.943Z,20.00
2018-10-21T19:18:27.415Z,20.00
2018-10-21T19:31:34.614Z,20.00
2018-10-21T19:44:41.858Z,20.00
2018-10-21T19:57:49.034Z,20.00
2018-10-21T20:10:56.623Z,20.00
2018-10-21T20:24:03.810Z,20.00
2018-10-21T20:37:10.972Z,20.00
2018-10-21T20:50:18.226Z,20.00
2018-10-21T21:03:25.390Z,20.00
2018-10-21T21:16:32.974Z,19.90
2018-10-21T21:42:42.623Z,19.80
2018-10-21T21:55:49.784Z,19.80
2018-10-21T22:08:56.986Z,19.70
2018-10-21T22:35:06.693Z,19.70
2018-10-21T22:48:13.952Z,19.60
2018-10-21T23:27:25.699Z,19.60
2018-10-21T23:40:32.884Z,19.60
2018-10-21T23:53:40.023Z,19.60
